Sealuck 2 — 9HXU7 — position and weather

sailwx.info

Track history (hours):
 
Tides and Currents Weather Stations Pressure Air Temp Water Temp Dewpoint Dewpoint Depression Visibility Wind Speed Wind Dir Waves Ship Positions

Sealuck 2

Last reported at 2017-Sep-19 19:45 UTC. Time now 2017-Sep-21 12:35 UTC.
Position N 40°44' E 028°30'.

Length 190 m; draft 8.8 m.

Type: Ship. MMSI: 215713000.

Date/timePositionNaut miles runAvg speedWind from/ knotsBaromVisibWave heightAir tempDewpointWater temp
2017-Sep-19 19:45N 40°44' E 028°30'312.7
2017-Sep-19 19:30N 40°44' E 028°26'712.9
2017-Sep-19 18:58N 40°44' E 028°17'1112.8
2017-Sep-19 18:06N 40°45' E 028°02'512.8
2017-Sep-19 17:45N 40°44' E 027°56'4812.6
2017-Sep-19 13:58N 40°29' E 026°57'912.6
2017-Sep-19 13:14N 40°26' E 026°46'2310.3
2017-Sep-19 10:58N 40°10' E 026°24'2510.6
2017-Sep-19 08:35N 39°56' E 025°56'4 8.7
2017-Sep-19 08:11N 39°53' E 025°53'2 8.7
2017-Sep-19 07:58N 39°52' E 025°52'1212.7
2017-Sep-19 07:02N 39°42' E 025°43'113.2
2017-Sep-19 07:00N 39°41' E 025°43'1113.1
2017-Sep-19 06:12N 39°32' E 025°37'313.3
2017-Sep-19 05:59N 39°29' E 025°35'1613.3
2017-Sep-19 04:46N 39°15' E 025°26'313.6
2017-Sep-19 04:30N 39°12' E 025°23'713.5
2017-Sep-19 04:00N 39°06' E 025°20'1313.3
2017-Sep-19 03:02N 38°54' E 025°12'113.3
2017-Sep-19 02:59N 38°54' E 025°12'1713.3
2017-Sep-19 01:43N 38°39' E 025°03'2613.2
2017-Sep-18 23:47N 38°15' E 024°50'513.6
2017-Sep-18 23:24N 38°11' E 024°47'1813.9
2017-Sep-18 22:07N 37°55' E 024°37'3413.2
2017-Sep-18 19:33N 37°25' E 024°17'213.5
2017-Sep-18 19:26N 37°24' E 024°15'613.1
2017-Sep-18 19:00N 37°20' E 024°10'713.4
2017-Sep-18 18:30N 37°16' E 024°04'713.4
2017-Sep-18 18:01N 37°11' E 023°57'713.3
2017-Sep-18 17:30N 37°07' E 023°51'713.4
2017-Sep-18 17:01N 37°02' E 023°46'713.3
2017-Sep-18 16:30N 36°57' E 023°40'713.3
2017-Sep-18 16:01N 36°52' E 023°35'713.3
2017-Sep-18 15:30N 36°46' E 023°30'30412.6
2017-Sep-17 15:21N 36°24' E 017°13'3313.0
2017-Sep-17 12:47N 36°26' E 016°31'513.1
2017-Sep-17 12:23N 36°27' E 016°25'612.9
2017-Sep-17 11:54N 36°27' E 016°17'713.0
2017-Sep-17 11:23N 36°27' E 016°08'512.9
2017-Sep-17 11:00N 36°27' E 016°02'612.8
2017-Sep-17 10:30N 36°27' E 015°55'612.6
2017-Sep-17 10:00N 36°27' E 015°47'612.5
2017-Sep-17 09:29N 36°27' E 015°39'612.5
2017-Sep-17 09:01N 36°27' E 015°31'612.5
2017-Sep-17 08:30N 36°27' E 015°23'612.7
2017-Sep-17 08:01N 36°27' E 015°16'713.3
2017-Sep-17 07:30N 36°27' E 015°07'713.5
2017-Sep-17 07:00N 36°28' E 014°59'713.5
2017-Sep-17 06:30N 36°28' E 014°50'713.4
2017-Sep-17 06:00N 36°28' E 014°42'713.2
2017-Sep-17 05:30N 36°29' E 014°34'713.0
2017-Sep-17 05:00N 36°31' E 014°26'713.3
2017-Sep-17 04:30N 36°33' E 014°18'713.4
2017-Sep-17 04:00N 36°35' E 014°10'713.4
2017-Sep-17 03:30N 36°38' E 014°02'713.4
2017-Sep-17 03:00N 36°40' E 013°55'713.2
2017-Sep-17 02:30N 36°42' E 013°47'612.8
2017-Sep-17 02:00N 36°43' E 013°39'612.6
2017-Sep-17 01:30N 36°45' E 013°32'612.7
2017-Sep-17 01:00N 36°47' E 013°24'612.9
2017-Sep-17 00:30N 36°49' E 013°16'613.0
2017-Sep-17 00:00N 36°51' E 013°09'612.8
2017-Sep-16 23:30N 36°53' E 013°01'712.9
2017-Sep-16 23:00N 36°55' E 012°53'713.0
2017-Sep-16 22:30N 36°57' E 012°46'713.3
2017-Sep-16 22:00N 36°59' E 012°38'2513.2
2017-Sep-16 20:06N 37°06' E 012°07'113.3
2017-Sep-16 20:00N 37°06' E 012°06'713.0
2017-Sep-16 19:30N 37°08' E 011°58'612.8
2017-Sep-16 19:00N 37°10' E 011°50'612.7
2017-Sep-16 18:30N 37°12' E 011°43'713.1
2017-Sep-16 17:58N 37°14' E 011°34'613.0
2017-Sep-16 17:31N 37°15' E 011°27'1713.2
2017-Sep-16 16:13N 37°23' E 011°08'613.1
2017-Sep-16 15:44N 37°25' E 011°00'413.2
2017-Sep-16 15:25N 37°26' E 010°55'613.3
2017-Sep-16 14:59N 37°27' E 010°48'613.4
2017-Sep-16 14:30N 37°29' E 010°40'713.8
2017-Sep-16 14:00N 37°31' E 010°32'713.9
2017-Sep-16 13:30N 37°32' E 010°23'913.7
2017-Sep-16 12:52N 37°34' E 010°12'713.6
2017-Sep-16 12:23N 37°34' E 010°04'6913.4
2017-Sep-16 07:14N 37°37' E 008°37'312.8
2017-Sep-16 07:00N 37°37' E 008°34'612.9
2017-Sep-16 06:30N 37°37' E 008°26'712.8
2017-Sep-16 05:59N 37°37' E 008°17'612.7
2017-Sep-16 05:29N 37°37' E 008°09'1212.6
2017-Sep-16 04:31N 37°37' E 007°54'112.8
2017-Sep-16 04:25N 37°37' E 007°52'612.9
2017-Sep-16 03:54N 37°37' E 007°44'23112.9
2017-Sep-15 10:02N 37°24' E 002°53'013.1
2017-Sep-15 10:00N 37°24' E 002°52'812.9
2017-Sep-15 09:24N 37°22' E 002°43'513.0
2017-Sep-15 08:59N 37°21' E 002°36'2413.4
2017-Sep-15 07:13N 37°14' E 002°08'2813.1
2017-Sep-15 05:07N 37°08' E 001°34'1612.7
2017-Sep-15 03:52N 37°04' E 001°15'2213.1
2017-Sep-15 02:13N 36°59' E 000°48'313.1
2017-Sep-15 02:00N 36°58' E 000°45'613.0
2017-Sep-15 01:30N 36°57' E 000°37'713.1
2017-Sep-15 01:00N 36°55' E 000°29'713.1
2017-Sep-15 00:30N 36°53' E 000°21'713.1
2017-Sep-15 00:00N 36°51' E 000°14'713.3
2017-Sep-14 23:29N 36°50' E 000°05'1013.4
2017-Sep-14 22:47N 36°47' W 000°06'413.3
2017-Sep-14 22:28N 36°46' W 000°11'1213.3
2017-Sep-14 21:32N 36°43' W 000°26'013.3
2017-Sep-14 21:30N 36°43' W 000°27'713.1
2017-Sep-14 21:00N 36°41' W 000°35'713.1
2017-Sep-14 20:30N 36°40' W 000°43'713.2
2017-Sep-14 20:00N 36°38' W 000°51'713.5
2017-Sep-14 19:30N 36°36' W 000°59'713.7
2017-Sep-14 18:58N 36°34' W 001°07'714.3
2017-Sep-14 18:30N 36°33' W 001°16'714.7
2017-Sep-14 18:00N 36°31' W 001°24'2414.6
2017-Sep-14 16:21N 36°26' W 001°53'514.2
2017-Sep-14 16:00N 36°25' W 001°60'15510.0
2017-Sep-14 00:29N 36°01' W 005°09'613.2
2017-Sep-14 00:00N 35°60' W 005°17'713.3
2017-Sep-13 23:30N 35°58' W 005°25'1513.2
2017-Sep-13 22:23N 35°54' W 005°43'4112.6
2017-Sep-13 19:09N 35°57' W 006°33'212.6
2017-Sep-13 18:59N 35°58' W 006°35'6512.4
2017-Sep-13 13:44N 36°13' W 007°54'312.8
2017-Sep-13 13:30N 36°14' W 007°57'1112.7
2017-Sep-13 12:37N 36°17' W 008°11'112.8
2017-Sep-13 12:30N 36°17' W 008°13'713.3
2017-Sep-13 12:00N 36°19' W 008°21'712.9
2017-Sep-13 11:29N 36°21' W 008°29'613.1
2017-Sep-13 11:00N 36°22' W 008°36'713.3
2017-Sep-13 10:30N 36°23' W 008°44'913.3
2017-Sep-13 09:51N 36°25' W 008°55'513.3
2017-Sep-13 09:30N 36°26' W 009°00'713.2
2017-Sep-13 09:00N 36°28' W 009°08'713.2
2017-Sep-13 08:30N 36°29' W 009°16'612.7
2017-Sep-13 08:00N 36°32' W 009°23'713.3
2017-Sep-13 07:30N 36°37' W 009°29'613.0
2017-Sep-13 07:00N 36°42' W 009°35'612.8
2017-Sep-13 06:30N 36°47' W 009°39'813.3
2017-Sep-13 05:56N 36°54' W 009°42'612.9
2017-Sep-13 05:30N 36°60' W 009°42'1013.1
2017-Sep-13 04:45N 37°09' W 009°44'513.4
2017-Sep-13 04:21N 37°14' W 009°46'1013.6
2017-Sep-13 03:39N 37°24' W 009°49'813.3
2017-Sep-13 03:04N 37°31' W 009°51'1512.9
2017-Sep-13 01:54N 37°46' W 009°55'812.4
2017-Sep-13 01:15N 37°54' W 009°58'312.6
2017-Sep-13 01:00N 37°57' W 009°59'612.8
2017-Sep-13 00:30N 38°03' W 010°00'612.7
2017-Sep-13 00:00N 38°09' W 010°02'713.1
2017-Sep-12 23:30N 38°15' W 010°05'713.4
2017-Sep-12 23:00N 38°22' W 010°07'713.4
2017-Sep-12 22:30N 38°29' W 010°08'713.3
2017-Sep-12 22:00N 38°35' W 010°10'612.9
2017-Sep-12 21:30N 38°41' W 010°12'713.4
2017-Sep-12 21:00N 38°48' W 010°12'713.6
2017-Sep-12 20:30N 38°55' W 010°12'713.6
2017-Sep-12 20:00N 39°02' W 010°12'713.6
2017-Sep-12 19:30N 39°08' W 010°13'713.3
2017-Sep-12 19:00N 39°15' W 010°13'713.5
2017-Sep-12 18:30N 39°22' W 010°13'713.4
2017-Sep-12 17:59N 39°29' W 010°13'713.6
2017-Sep-12 17:30N 39°35' W 010°13'713.5
2017-Sep-12 17:01N 39°42' W 010°12'  
2017-Sep-10 09:12N 49°23' W 004°28'310.6
2017-Sep-10 08:53N 49°25' W 004°24'610.2
2017-Sep-10 08:16N 49°28' W 004°15'1110.0
2017-Sep-10 07:09N 49°34' W 004°00'110.1
2017-Sep-10 07:00N 49°35' W 003°58'510.4
2017-Sep-10 06:30N 49°37' W 003°52'510.9
2017-Sep-10 06:00N 49°40' W 003°45'611.5
2017-Sep-10 05:30N 49°44' W 003°37'612.4
2017-Sep-10 05:01N 49°47' W 003°29'713.3
2017-Sep-10 04:30N 49°50' W 003°21'714.0
2017-Sep-10 04:00N 49°54' W 003°11'714.7
2017-Sep-10 03:30N 49°58' W 003°01'714.6
2017-Sep-10 03:00N 49°60' W 002°50'715.0
2017-Sep-10 02:30N 50°02' W 002°39'2613.3
2017-Sep-10 00:34N 50°08' W 001°60'111.4
2017-Sep-10 00:30N 50°08' W 001°59'510.9
2017-Sep-10 00:00N 50°10' W 001°51'510.0
2017-Sep-09 23:30N 50°11' W 001°43'5 9.4
2017-Sep-09 23:01N 50°12' W 001°36'4 9.0
2017-Sep-09 22:31N 50°13' W 001°29'4 8.8
2017-Sep-09 22:00N 50°14' W 001°23'4 8.7
2017-Sep-09 21:30N 50°16' W 001°16'5 9.1
2017-Sep-09 21:00N 50°17' W 001°09'610.0
2017-Sep-09 20:25N 50°19' W 001°01'511.3
2017-Sep-09 20:00N 50°21' W 000°54'  
Track history (hours):
 
Tides and Currents Weather Stations Pressure Air Temp Water Temp Dewpoint Dewpoint Depression Visibility Wind Speed Wind Dir Waves Ship Positions

Sealuck 2

Last reported at 2017-Sep-19 19:45 UTC. Time now 2017-Sep-21 12:35 UTC.
Position N 40°44' E 028°30'.

Length 190 m; draft 8.8 m.

Type: Ship. MMSI: 215713000.

Date/timePositionNaut miles runAvg speedWind from/ knotsBaromVisibWave heightAir tempDewpointWater temp
2017-Sep-19 19:45N 40°44' E 028°30'312.7
2017-Sep-19 19:30N 40°44' E 028°26'712.9
2017-Sep-19 18:58N 40°44' E 028°17'1112.8
2017-Sep-19 18:06N 40°45' E 028°02'512.8
2017-Sep-19 17:45N 40°44' E 027°56'4812.6
2017-Sep-19 13:58N 40°29' E 026°57'912.6
2017-Sep-19 13:14N 40°26' E 026°46'2310.3
2017-Sep-19 10:58N 40°10' E 026°24'2510.6
2017-Sep-19 08:35N 39°56' E 025°56'4 8.7
2017-Sep-19 08:11N 39°53' E 025°53'2 8.7
2017-Sep-19 07:58N 39°52' E 025°52'1212.7
2017-Sep-19 07:02N 39°42' E 025°43'113.2
2017-Sep-19 07:00N 39°41' E 025°43'1113.1
2017-Sep-19 06:12N 39°32' E 025°37'313.3
2017-Sep-19 05:59N 39°29' E 025°35'1613.3
2017-Sep-19 04:46N 39°15' E 025°26'313.6
2017-Sep-19 04:30N 39°12' E 025°23'713.5
2017-Sep-19 04:00N 39°06' E 025°20'1313.3
2017-Sep-19 03:02N 38°54' E 025°12'113.3
2017-Sep-19 02:59N 38°54' E 025°12'1713.3
2017-Sep-19 01:43N 38°39' E 025°03'2613.2
2017-Sep-18 23:47N 38°15' E 024°50'513.6
2017-Sep-18 23:24N 38°11' E 024°47'1813.9
2017-Sep-18 22:07N 37°55' E 024°37'3413.2
2017-Sep-18 19:33N 37°25' E 024°17'213.5
2017-Sep-18 19:26N 37°24' E 024°15'613.1
2017-Sep-18 19:00N 37°20' E 024°10'713.4
2017-Sep-18 18:30N 37°16' E 024°04'713.4
2017-Sep-18 18:01N 37°11' E 023°57'713.3
2017-Sep-18 17:30N 37°07' E 023°51'713.4
2017-Sep-18 17:01N 37°02' E 023°46'713.3
2017-Sep-18 16:30N 36°57' E 023°40'713.3
2017-Sep-18 16:01N 36°52' E 023°35'713.3
2017-Sep-18 15:30N 36°46' E 023°30'30412.6
2017-Sep-17 15:21N 36°24' E 017°13'3313.0
2017-Sep-17 12:47N 36°26' E 016°31'513.1
2017-Sep-17 12:23N 36°27' E 016°25'612.9
2017-Sep-17 11:54N 36°27' E 016°17'713.0
2017-Sep-17 11:23N 36°27' E 016°08'512.9
2017-Sep-17 11:00N 36°27' E 016°02'612.8
2017-Sep-17 10:30N 36°27' E 015°55'612.6
2017-Sep-17 10:00N 36°27' E 015°47'612.5
2017-Sep-17 09:29N 36°27' E 015°39'612.5
2017-Sep-17 09:01N 36°27' E 015°31'612.5
2017-Sep-17 08:30N 36°27' E 015°23'612.7
2017-Sep-17 08:01N 36°27' E 015°16'713.3
2017-Sep-17 07:30N 36°27' E 015°07'713.5
2017-Sep-17 07:00N 36°28' E 014°59'713.5
2017-Sep-17 06:30N 36°28' E 014°50'713.4
2017-Sep-17 06:00N 36°28' E 014°42'713.2
2017-Sep-17 05:30N 36°29' E 014°34'713.0
2017-Sep-17 05:00N 36°31' E 014°26'713.3
2017-Sep-17 04:30N 36°33' E 014°18'713.4
2017-Sep-17 04:00N 36°35' E 014°10'713.4
2017-Sep-17 03:30N 36°38' E 014°02'713.4
2017-Sep-17 03:00N 36°40' E 013°55'713.2
2017-Sep-17 02:30N 36°42' E 013°47'612.8
2017-Sep-17 02:00N 36°43' E 013°39'612.6
2017-Sep-17 01:30N 36°45' E 013°32'612.7
2017-Sep-17 01:00N 36°47' E 013°24'612.9
2017-Sep-17 00:30N 36°49' E 013°16'613.0
2017-Sep-17 00:00N 36°51' E 013°09'612.8
2017-Sep-16 23:30N 36°53' E 013°01'712.9
2017-Sep-16 23:00N 36°55' E 012°53'713.0
2017-Sep-16 22:30N 36°57' E 012°46'713.3
2017-Sep-16 22:00N 36°59' E 012°38'2513.2
2017-Sep-16 20:06N 37°06' E 012°07'113.3
2017-Sep-16 20:00N 37°06' E 012°06'713.0
2017-Sep-16 19:30N 37°08' E 011°58'612.8
2017-Sep-16 19:00N 37°10' E 011°50'612.7
2017-Sep-16 18:30N 37°12' E 011°43'713.1
2017-Sep-16 17:58N 37°14' E 011°34'613.0
2017-Sep-16 17:31N 37°15' E 011°27'1713.2
2017-Sep-16 16:13N 37°23' E 011°08'613.1
2017-Sep-16 15:44N 37°25' E 011°00'413.2
2017-Sep-16 15:25N 37°26' E 010°55'613.3
2017-Sep-16 14:59N 37°27' E 010°48'613.4
2017-Sep-16 14:30N 37°29' E 010°40'713.8
2017-Sep-16 14:00N 37°31' E 010°32'713.9
2017-Sep-16 13:30N 37°32' E 010°23'913.7
2017-Sep-16 12:52N 37°34' E 010°12'713.6
2017-Sep-16 12:23N 37°34' E 010°04'6913.4
2017-Sep-16 07:14N 37°37' E 008°37'312.8
2017-Sep-16 07:00N 37°37' E 008°34'612.9
2017-Sep-16 06:30N 37°37' E 008°26'712.8
2017-Sep-16 05:59N 37°37' E 008°17'612.7
2017-Sep-16 05:29N 37°37' E 008°09'1212.6
2017-Sep-16 04:31N 37°37' E 007°54'112.8
2017-Sep-16 04:25N 37°37' E 007°52'612.9
2017-Sep-16 03:54N 37°37' E 007°44'23112.9
2017-Sep-15 10:02N 37°24' E 002°53'013.1
2017-Sep-15 10:00N 37°24' E 002°52'812.9
2017-Sep-15 09:24N 37°22' E 002°43'513.0
2017-Sep-15 08:59N 37°21' E 002°36'2413.4
2017-Sep-15 07:13N 37°14' E 002°08'2813.1
2017-Sep-15 05:07N 37°08' E 001°34'1612.7
2017-Sep-15 03:52N 37°04' E 001°15'2213.1
2017-Sep-15 02:13N 36°59' E 000°48'313.1
2017-Sep-15 02:00N 36°58' E 000°45'613.0
2017-Sep-15 01:30N 36°57' E 000°37'713.1
2017-Sep-15 01:00N 36°55' E 000°29'713.1
2017-Sep-15 00:30N 36°53' E 000°21'713.1
2017-Sep-15 00:00N 36°51' E 000°14'713.3
2017-Sep-14 23:29N 36°50' E 000°05'1013.4
2017-Sep-14 22:47N 36°47' W 000°06'413.3
2017-Sep-14 22:28N 36°46' W 000°11'1213.3
2017-Sep-14 21:32N 36°43' W 000°26'013.3
2017-Sep-14 21:30N 36°43' W 000°27'713.1
2017-Sep-14 21:00N 36°41' W 000°35'713.1
2017-Sep-14 20:30N 36°40' W 000°43'713.2
2017-Sep-14 20:00N 36°38' W 000°51'713.5
2017-Sep-14 19:30N 36°36' W 000°59'713.7
2017-Sep-14 18:58N 36°34' W 001°07'714.3
2017-Sep-14 18:30N 36°33' W 001°16'714.7
2017-Sep-14 18:00N 36°31' W 001°24'2414.6
2017-Sep-14 16:21N 36°26' W 001°53'514.2
2017-Sep-14 16:00N 36°25' W 001°60'15510.0
2017-Sep-14 00:29N 36°01' W 005°09'613.2
2017-Sep-14 00:00N 35°60' W 005°17'713.3
2017-Sep-13 23:30N 35°58' W 005°25'1513.2
2017-Sep-13 22:23N 35°54' W 005°43'4112.6
2017-Sep-13 19:09N 35°57' W 006°33'212.6
2017-Sep-13 18:59N 35°58' W 006°35'6512.4
2017-Sep-13 13:44N 36°13' W 007°54'312.8
2017-Sep-13 13:30N 36°14' W 007°57'1112.7
2017-Sep-13 12:37N 36°17' W 008°11'112.8
2017-Sep-13 12:30N 36°17' W 008°13'713.3
2017-Sep-13 12:00N 36°19' W 008°21'712.9
2017-Sep-13 11:29N 36°21' W 008°29'613.1
2017-Sep-13 11:00N 36°22' W 008°36'713.3
2017-Sep-13 10:30N 36°23' W 008°44'913.3
2017-Sep-13 09:51N 36°25' W 008°55'513.3
2017-Sep-13 09:30N 36°26' W 009°00'713.2
2017-Sep-13 09:00N 36°28' W 009°08'713.2
2017-Sep-13 08:30N 36°29' W 009°16'612.7
2017-Sep-13 08:00N 36°32' W 009°23'713.3
2017-Sep-13 07:30N 36°37' W 009°29'613.0
2017-Sep-13 07:00N 36°42' W 009°35'612.8
2017-Sep-13 06:30N 36°47' W 009°39'813.3
2017-Sep-13 05:56N 36°54' W 009°42'612.9
2017-Sep-13 05:30N 36°60' W 009°42'1013.1
2017-Sep-13 04:45N 37°09' W 009°44'513.4
2017-Sep-13 04:21N 37°14' W 009°46'1013.6
2017-Sep-13 03:39N 37°24' W 009°49'813.3
2017-Sep-13 03:04N 37°31' W 009°51'1512.9
2017-Sep-13 01:54N 37°46' W 009°55'812.4
2017-Sep-13 01:15N 37°54' W 009°58'312.6
2017-Sep-13 01:00N 37°57' W 009°59'612.8
2017-Sep-13 00:30N 38°03' W 010°00'612.7
2017-Sep-13 00:00N 38°09' W 010°02'713.1
2017-Sep-12 23:30N 38°15' W 010°05'713.4
2017-Sep-12 23:00N 38°22' W 010°07'713.4
2017-Sep-12 22:30N 38°29' W 010°08'713.3
2017-Sep-12 22:00N 38°35' W 010°10'612.9
2017-Sep-12 21:30N 38°41' W 010°12'713.4
2017-Sep-12 21:00N 38°48' W 010°12'713.6
2017-Sep-12 20:30N 38°55' W 010°12'713.6
2017-Sep-12 20:00N 39°02' W 010°12'713.6
2017-Sep-12 19:30N 39°08' W 010°13'713.3
2017-Sep-12 19:00N 39°15' W 010°13'713.5
2017-Sep-12 18:30N 39°22' W 010°13'713.4
2017-Sep-12 17:59N 39°29' W 010°13'713.6
2017-Sep-12 17:30N 39°35' W 010°13'713.5
2017-Sep-12 17:01N 39°42' W 010°12'  
2017-Sep-10 09:12N 49°23' W 004°28'310.6
2017-Sep-10 08:53N 49°25' W 004°24'610.2
2017-Sep-10 08:16N 49°28' W 004°15'1110.0
2017-Sep-10 07:09N 49°34' W 004°00'110.1
2017-Sep-10 07:00N 49°35' W 003°58'510.4
2017-Sep-10 06:30N 49°37' W 003°52'510.9
2017-Sep-10 06:00N 49°40' W 003°45'611.5
2017-Sep-10 05:30N 49°44' W 003°37'612.4
2017-Sep-10 05:01N 49°47' W 003°29'713.3
2017-Sep-10 04:30N 49°50' W 003°21'714.0
2017-Sep-10 04:00N 49°54' W 003°11'714.7
2017-Sep-10 03:30N 49°58' W 003°01'714.6
2017-Sep-10 03:00N 49°60' W 002°50'715.0
2017-Sep-10 02:30N 50°02' W 002°39'2613.3
2017-Sep-10 00:34N 50°08' W 001°60'111.4
2017-Sep-10 00:30N 50°08' W 001°59'510.9
2017-Sep-10 00:00N 50°10' W 001°51'510.0
2017-Sep-09 23:30N 50°11' W 001°43'5 9.4
2017-Sep-09 23:01N 50°12' W 001°36'4 9.0
2017-Sep-09 22:31N 50°13' W 001°29'4 8.8
2017-Sep-09 22:00N 50°14' W 001°23'4 8.7
2017-Sep-09 21:30N 50°16' W 001°16'5 9.1
2017-Sep-09 21:00N 50°17' W 001°09'610.0
2017-Sep-09 20:25N 50°19' W 001°01'511.3
2017-Sep-09 20:00N 50°21' W 000°54'  

Dump ship's entire track history